sensor_id;sensor_type;location;lat;lon;timestamp;P1;durP1;ratioP1;P2;durP2;ratioP2
12818;SDS011;6474;53.474;9.894;2023-08-06T00:00:26;0.77;;;0.77;;
12818;SDS011;6474;53.474;9.894;2023-08-06T00:02:56;0.70;;;0.70;;
12818;SDS011;6474;53.474;9.894;2023-08-06T00:05:24;0.90;;;0.90;;
12818;SDS011;6474;53.474;9.894;2023-08-06T00:07:52;1.05;;;0.75;;
12818;SDS011;6474;53.474;9.894;2023-08-06T00:10:20;1.05;;;1.05;;
12818;SDS011;6474;53.474;9.894;2023-08-06T00:12:49;0.77;;;0.77;;
12818;SDS011;6474;53.474;9.894;2023-08-06T00:15:20;0.87;;;0.60;;
12818;SDS011;6474;53.474;9.894;2023-08-06T00:17:48;0.63;;;0.63;;
12818;SDS011;6474;53.474;9.894;2023-08-06T00:20:17;0.95;;;0.95;;
12818;SDS011;6474;53.474;9.894;2023-08-06T00:22:45;1.13;;;0.88;;
12818;SDS011;6474;53.474;9.894;2023-08-06T00:25:13;0.82;;;0.82;;
12818;SDS011;6474;53.474;9.894;2023-08-06T00:27:41;0.70;;;0.70;;
12818;SDS011;6474;53.474;9.894;2023-08-06T00:30:09;0.98;;;0.90;;
12818;SDS011;6474;53.474;9.894;2023-08-06T00:32:38;0.75;;;0.75;;
12818;SDS011;6474;53.474;9.894;2023-08-06T00:35:06;1.75;;;0.88;;
12818;SDS011;6474;53.474;9.894;2023-08-06T00:37:36;0.88;;;0.88;;
12818;SDS011;6474;53.474;9.894;2023-08-06T00:40:04;1.02;;;1.02;;
12818;SDS011;6474;53.474;9.894;2023-08-06T00:42:33;0.90;;;0.90;;
12818;SDS011;6474;53.474;9.894;2023-08-06T00:45:02;1.20;;;1.20;;
12818;SDS011;6474;53.474;9.894;2023-08-06T00:47:30;1.05;;;1.05;;
12818;SDS011;6474;53.474;9.894;2023-08-06T00:49:58;1.30;;;1.20;;
12818;SDS011;6474;53.474;9.894;2023-08-06T00:52:26;0.90;;;0.90;;
12818;SDS011;6474;53.474;9.894;2023-08-06T00:54:56;1.20;;;1.20;;
12818;SDS011;6474;53.474;9.894;2023-08-06T00:57:24;1.25;;;1.25;;
12818;SDS011;6474;53.474;9.894;2023-08-06T00:59:53;1.60;;;1.60;;
12818;SDS011;6474;53.474;9.894;2023-08-06T01:02:21;1.25;;;1.25;;
12818;SDS011;6474;53.474;9.894;2023-08-06T01:04:49;1.05;;;1.05;;
12818;SDS011;6474;53.474;9.894;2023-08-06T01:07:19;1.30;;;1.30;;
12818;SDS011;6474;53.474;9.894;2023-08-06T01:10:02;1.23;;;1.08;;
12818;SDS011;6474;53.474;9.894;2023-08-06T01:12:45;1.30;;;1.20;;
12818;SDS011;6474;53.474;9.894;2023-08-06T01:15:19;1.35;;;1.35;;
12818;SDS011;6474;53.474;9.894;2023-08-06T01:17:50;3.03;;;1.20;;
12818;SDS011;6474;53.474;9.894;2023-08-06T01:20:19;1.23;;;1.10;;
12818;SDS011;6474;53.474;9.894;2023-08-06T01:22:48;1.27;;;1.27;;
12818;SDS011;6474;53.474;9.894;2023-08-06T01:25:16;0.95;;;0.90;;
12818;SDS011;6474;53.474;9.894;2023-08-06T01:27:46;1.13;;;1.13;;
12818;SDS011;6474;53.474;9.894;2023-08-06T01:30:16;2.15;;;1.17;;
12818;SDS011;6474;53.474;9.894;2023-08-06T01:32:48;1.20;;;1.20;;
12818;SDS011;6474;53.474;9.894;2023-08-06T01:35:20;2.40;;;2.17;;
12818;SDS011;6474;53.474;9.894;2023-08-06T01:37:51;1.35;;;1.35;;
12818;SDS011;6474;53.474;9.894;2023-08-06T01:40:20;10.30;;;1.67;;
12818;SDS011;6474;53.474;9.894;2023-08-06T01:42:48;1.35;;;1.35;;
12818;SDS011;6474;53.474;9.894;2023-08-06T01:45:16;1.10;;;1.10;;
12818;SDS011;6474;53.474;9.894;2023-08-06T01:47:44;1.50;;;1.50;;
12818;SDS011;6474;53.474;9.894;2023-08-06T01:50:12;1.75;;;1.35;;
12818;SDS011;6474;53.474;9.894;2023-08-06T01:52:40;1.02;;;1.02;;
12818;SDS011;6474;53.474;9.894;2023-08-06T01:55:09;2.00;;;1.90;;
12818;SDS011;6474;53.474;9.894;2023-08-06T01:57:37;0.95;;;0.95;;
12818;SDS011;6474;53.474;9.894;2023-08-06T02:00:06;1.25;;;1.25;;
12818;SDS011;6474;53.474;9.894;2023-08-06T02:02:34;1.98;;;1.25;;
12818;SDS011;6474;53.474;9.894;2023-08-06T02:05:02;1.20;;;1.10;;
12818;SDS011;6474;53.474;9.894;2023-08-06T02:07:31;1.50;;;1.50;;
12818;SDS011;6474;53.474;9.894;2023-08-06T02:09:59;1.23;;;1.23;;
12818;SDS011;6474;53.474;9.894;2023-08-06T02:12:28;1.15;;;1.15;;
12818;SDS011;6474;53.474;9.894;2023-08-06T02:14:56;1.30;;;1.30;;
12818;SDS011;6474;53.474;9.894;2023-08-06T02:17:24;1.17;;;1.17;;
12818;SDS011;6474;53.474;9.894;2023-08-06T02:19:52;1.23;;;1.23;;
12818;SDS011;6474;53.474;9.894;2023-08-06T02:22:20;1.15;;;1.15;;
12818;SDS011;6474;53.474;9.894;2023-08-06T02:24:49;1.20;;;1.20;;
12818;SDS011;6474;53.474;9.894;2023-08-06T02:27:17;1.20;;;1.20;;
12818;SDS011;6474;53.474;9.894;2023-08-06T02:29:46;1.50;;;1.40;;
12818;SDS011;6474;53.474;9.894;2023-08-06T02:32:14;1.83;;;1.63;;
12818;SDS011;6474;53.474;9.894;2023-08-06T02:34:42;1.65;;;1.30;;
12818;SDS011;6474;53.474;9.894;2023-08-06T02:37:10;1.02;;;1.02;;
12818;SDS011;6474;53.474;9.894;2023-08-06T02:39:38;1.15;;;1.02;;
12818;SDS011;6474;53.474;9.894;2023-08-06T02:42:06;1.40;;;1.40;;
12818;SDS011;6474;53.474;9.894;2023-08-06T02:44:35;1.55;;;1.55;;
12818;SDS011;6474;53.474;9.894;2023-08-06T02:47:05;1.20;;;1.20;;
12818;SDS011;6474;53.474;9.894;2023-08-06T02:49:33;1.35;;;1.35;;
12818;SDS011;6474;53.474;9.894;2023-08-06T02:52:01;1.42;;;1.42;;
12818;SDS011;6474;53.474;9.894;2023-08-06T02:54:29;1.05;;;1.05;;
12818;SDS011;6474;53.474;9.894;2023-08-06T02:56:57;1.23;;;1.23;;
12818;SDS011;6474;53.474;9.894;2023-08-06T02:59:25;1.30;;;1.30;;
12818;SDS011;6474;53.474;9.894;2023-08-06T03:01:53;1.83;;;1.73;;
12818;SDS011;6474;53.474;9.894;2023-08-06T03:04:23;1.30;;;1.30;;
12818;SDS011;6474;53.474;9.894;2023-08-06T03:06:51;1.25;;;1.25;;
12818;SDS011;6474;53.474;9.894;2023-08-06T03:09:19;1.48;;;1.48;;
12818;SDS011;6474;53.474;9.894;2023-08-06T03:11:47;1.40;;;1.40;;
12818;SDS011;6474;53.474;9.894;2023-08-06T03:14:15;1.52;;;1.52;;
12818;SDS011;6474;53.474;9.894;2023-08-06T03:16:43;2.30;;;1.80;;
12818;SDS011;6474;53.474;9.894;2023-08-06T03:19:11;1.77;;;1.67;;
12818;SDS011;6474;53.474;9.894;2023-08-06T03:21:41;1.90;;;1.60;;
12818;SDS011;6474;53.474;9.894;2023-08-06T03:24:09;3.70;;;1.40;;
12818;SDS011;6474;53.474;9.894;2023-08-06T03:26:37;1.50;;;1.50;;
12818;SDS011;6474;53.474;9.894;2023-08-06T03:29:05;1.30;;;1.30;;
12818;SDS011;6474;53.474;9.894;2023-08-06T03:31:33;1.52;;;1.52;;
12818;SDS011;6474;53.474;9.894;2023-08-06T03:34:01;1.25;;;1.25;;
12818;SDS011;6474;53.474;9.894;2023-08-06T03:36:29;1.30;;;1.30;;
12818;SDS011;6474;53.474;9.894;2023-08-06T03:38:58;1.75;;;1.65;;
12818;SDS011;6474;53.474;9.894;2023-08-06T03:41:26;1.65;;;1.55;;
12818;SDS011;6474;53.474;9.894;2023-08-06T03:43:54;1.50;;;1.50;;
12818;SDS011;6474;53.474;9.894;2023-08-06T03:46:22;1.13;;;1.13;;
12818;SDS011;6474;53.474;9.894;2023-08-06T03:48:51;2.05;;;1.92;;
12818;SDS011;6474;53.474;9.894;2023-08-06T03:51:19;3.13;;;1.90;;
12818;SDS011;6474;53.474;9.894;2023-08-06T03:53:46;1.30;;;1.30;;
12818;SDS011;6474;53.474;9.894;2023-08-06T03:56:16;1.85;;;1.73;;
12818;SDS011;6474;53.474;9.894;2023-08-06T03:58:44;1.60;;;1.60;;
12818;SDS011;6474;53.474;9.894;2023-08-06T04:01:11;1.73;;;1.65;;
12818;SDS011;6474;53.474;9.894;2023-08-06T04:03:39;1.17;;;1.17;;
12818;SDS011;6474;53.474;9.894;2023-08-06T04:06:08;1.40;;;1.40;;
12818;SDS011;6474;53.474;9.894;2023-08-06T04:08:36;1.92;;;1.77;;
12818;SDS011;6474;53.474;9.894;2023-08-06T04:11:04;1.60;;;1.60;;
12818;SDS011;6474;53.474;9.894;2023-08-06T04:13:36;1.40;;;1.40;;
12818;SDS011;6474;53.474;9.894;2023-08-06T04:16:04;4.95;;;1.58;;
12818;SDS011;6474;53.474;9.894;2023-08-06T04:18:32;1.73;;;1.73;;
12818;SDS011;6474;53.474;9.894;2023-08-06T04:21:01;1.58;;;1.58;;
12818;SDS011;6474;53.474;9.894;2023-08-06T04:23:29;1.95;;;1.95;;
12818;SDS011;6474;53.474;9.894;2023-08-06T04:25:57;1.73;;;1.63;;
12818;SDS011;6474;53.474;9.894;2023-08-06T04:28:25;1.58;;;1.48;;
12818;SDS011;6474;53.474;9.894;2023-08-06T04:30:54;2.22;;;2.13;;
12818;SDS011;6474;53.474;9.894;2023-08-06T04:33:22;1.70;;;1.70;;
12818;SDS011;6474;53.474;9.894;2023-08-06T04:35:53;1.77;;;1.67;;
12818;SDS011;6474;53.474;9.894;2023-08-06T04:38:22;2.50;;;1.73;;
12818;SDS011;6474;53.474;9.894;2023-08-06T04:40:51;1.85;;;1.60;;
12818;SDS011;6474;53.474;9.894;2023-08-06T04:43:19;1.33;;;1.33;;
12818;SDS011;6474;53.474;9.894;2023-08-06T04:45:47;1.63;;;1.52;;
12818;SDS011;6474;53.474;9.894;2023-08-06T04:48:17;2.15;;;1.77;;
12818;SDS011;6474;53.474;9.894;2023-08-06T04:50:45;1.35;;;1.35;;
12818;SDS011;6474;53.474;9.894;2023-08-06T04:53:14;1.65;;;1.55;;
12818;SDS011;6474;53.474;9.894;2023-08-06T04:55:43;1.38;;;1.38;;
12818;SDS011;6474;53.474;9.894;2023-08-06T04:58:12;2.40;;;1.37;;
12818;SDS011;6474;53.474;9.894;2023-08-06T05:00:40;1.27;;;1.27;;
12818;SDS011;6474;53.474;9.894;2023-08-06T05:03:09;1.98;;;1.70;;
12818;SDS011;6474;53.474;9.894;2023-08-06T05:05:38;1.80;;;1.80;;
12818;SDS011;6474;53.474;9.894;2023-08-06T05:08:07;1.55;;;1.55;;
12818;SDS011;6474;53.474;9.894;2023-08-06T05:10:41;1.50;;;1.50;;
12818;SDS011;6474;53.474;9.894;2023-08-06T05:13:10;1.40;;;1.40;;
12818;SDS011;6474;53.474;9.894;2023-08-06T05:15:38;1.48;;;1.48;;
12818;SDS011;6474;53.474;9.894;2023-08-06T05:18:08;3.17;;;1.83;;
12818;SDS011;6474;53.474;9.894;2023-08-06T05:20:37;1.40;;;1.40;;
12818;SDS011;6474;53.474;9.894;2023-08-06T05:23:07;1.67;;;1.67;;
12818;SDS011;6474;53.474;9.894;2023-08-06T05:25:35;1.23;;;1.23;;
12818;SDS011;6474;53.474;9.894;2023-08-06T05:28:03;1.13;;;1.13;;
12818;SDS011;6474;53.474;9.894;2023-08-06T05:30:32;1.58;;;1.58;;
12818;SDS011;6474;53.474;9.894;2023-08-06T05:32:59;1.35;;;1.35;;
12818;SDS011;6474;53.474;9.894;2023-08-06T05:35:28;1.30;;;1.30;;
12818;SDS011;6474;53.474;9.894;2023-08-06T05:37:57;1.80;;;1.77;;
12818;SDS011;6474;53.474;9.894;2023-08-06T05:40:25;1.45;;;1.45;;
12818;SDS011;6474;53.474;9.894;2023-08-06T05:42:53;1.50;;;1.50;;
12818;SDS011;6474;53.474;9.894;2023-08-06T05:45:21;1.55;;;1.45;;
12818;SDS011;6474;53.474;9.894;2023-08-06T05:47:49;1.40;;;1.40;;
12818;SDS011;6474;53.474;9.894;2023-08-06T05:50:17;1.50;;;1.50;;
12818;SDS011;6474;53.474;9.894;2023-08-06T05:52:45;2.03;;;1.92;;
12818;SDS011;6474;53.474;9.894;2023-08-06T05:55:15;1.67;;;1.58;;
12818;SDS011;6474;53.474;9.894;2023-08-06T05:57:43;1.95;;;1.90;;
12818;SDS011;6474;53.474;9.894;2023-08-06T06:00:11;1.52;;;1.52;;
12818;SDS011;6474;53.474;9.894;2023-08-06T06:02:39;1.65;;;1.55;;
12818;SDS011;6474;53.474;9.894;2023-08-06T06:05:07;1.20;;;1.20;;
12818;SDS011;6474;53.474;9.894;2023-08-06T06:07:35;2.42;;;1.85;;
12818;SDS011;6474;53.474;9.894;2023-08-06T06:10:04;1.83;;;1.77;;
12818;SDS011;6474;53.474;9.894;2023-08-06T06:12:34;1.67;;;1.65;;
12818;SDS011;6474;53.474;9.894;2023-08-06T06:15:02;1.55;;;1.55;;
12818;SDS011;6474;53.474;9.894;2023-08-06T06:17:33;1.40;;;1.40;;
12818;SDS011;6474;53.474;9.894;2023-08-06T06:20:02;1.65;;;1.55;;
12818;SDS011;6474;53.474;9.894;2023-08-06T06:22:31;1.42;;;1.42;;
12818;SDS011;6474;53.474;9.894;2023-08-06T06:24:59;1.77;;;1.67;;
12818;SDS011;6474;53.474;9.894;2023-08-06T06:27:27;1.80;;;1.70;;
12818;SDS011;6474;53.474;9.894;2023-08-06T06:29:56;5.63;;;1.67;;
12818;SDS011;6474;53.474;9.894;2023-08-06T06:32:25;1.35;;;1.35;;
12818;SDS011;6474;53.474;9.894;2023-08-06T06:34:53;1.33;;;1.33;;
12818;SDS011;6474;53.474;9.894;2023-08-06T06:37:22;1.50;;;1.50;;
12818;SDS011;6474;53.474;9.894;2023-08-06T06:39:50;1.60;;;1.60;;
12818;SDS011;6474;53.474;9.894;2023-08-06T06:42:18;2.25;;;2.08;;
12818;SDS011;6474;53.474;9.894;2023-08-06T06:44:46;1.98;;;1.88;;
12818;SDS011;6474;53.474;9.894;2023-08-06T06:47:21;2.35;;;2.25;;
12818;SDS011;6474;53.474;9.894;2023-08-06T06:49:49;2.28;;;1.75;;
12818;SDS011;6474;53.474;9.894;2023-08-06T06:52:18;1.30;;;1.30;;
12818;SDS011;6474;53.474;9.894;2023-08-06T06:54:47;1.35;;;1.35;;
12818;SDS011;6474;53.474;9.894;2023-08-06T06:57:15;1.50;;;1.50;;
12818;SDS011;6474;53.474;9.894;2023-08-06T06:59:43;3.05;;;1.73;;
12818;SDS011;6474;53.474;9.894;2023-08-06T07:02:11;2.42;;;1.60;;
12818;SDS011;6474;53.474;9.894;2023-08-06T07:04:40;2.03;;;1.80;;
12818;SDS011;6474;53.474;9.894;2023-08-06T07:07:11;4.93;;;1.65;;
12818;SDS011;6474;53.474;9.894;2023-08-06T07:09:39;1.80;;;1.80;;
12818;SDS011;6474;53.474;9.894;2023-08-06T07:12:07;1.60;;;1.60;;
12818;SDS011;6474;53.474;9.894;2023-08-06T07:14:35;1.55;;;1.55;;
12818;SDS011;6474;53.474;9.894;2023-08-06T07:17:03;1.88;;;1.77;;
12818;SDS011;6474;53.474;9.894;2023-08-06T07:19:32;1.55;;;1.55;;
12818;SDS011;6474;53.474;9.894;2023-08-06T07:22:02;1.58;;;1.58;;
12818;SDS011;6474;53.474;9.894;2023-08-06T07:24:32;1.67;;;1.67;;
12818;SDS011;6474;53.474;9.894;2023-08-06T07:27:00;1.75;;;1.60;;
12818;SDS011;6474;53.474;9.894;2023-08-06T07:29:28;1.35;;;1.35;;
12818;SDS011;6474;53.474;9.894;2023-08-06T07:31:56;1.88;;;1.77;;
12818;SDS011;6474;53.474;9.894;2023-08-06T07:34:24;1.58;;;1.58;;
12818;SDS011;6474;53.474;9.894;2023-08-06T07:36:52;1.60;;;1.60;;
12818;SDS011;6474;53.474;9.894;2023-08-06T07:39:21;1.80;;;1.70;;
12818;SDS011;6474;53.474;9.894;2023-08-06T07:41:50;1.75;;;1.25;;
12818;SDS011;6474;53.474;9.894;2023-08-06T07:44:18;1.63;;;1.63;;
12818;SDS011;6474;53.474;9.894;2023-08-06T07:46:46;1.85;;;1.83;;
12818;SDS011;6474;53.474;9.894;2023-08-06T07:49:18;2.15;;;2.05;;
12818;SDS011;6474;53.474;9.894;2023-08-06T07:51:47;1.48;;;1.48;;
12818;SDS011;6474;53.474;9.894;2023-08-06T07:54:15;1.30;;;1.30;;
12818;SDS011;6474;53.474;9.894;2023-08-06T07:56:45;1.73;;;1.70;;
12818;SDS011;6474;53.474;9.894;2023-08-06T07:59:14;2.00;;;1.90;;
12818;SDS011;6474;53.474;9.894;2023-08-06T08:01:42;2.03;;;1.88;;
12818;SDS011;6474;53.474;9.894;2023-08-06T08:04:10;3.20;;;2.25;;
12818;SDS011;6474;53.474;9.894;2023-08-06T08:06:40;1.67;;;1.65;;
12818;SDS011;6474;53.474;9.894;2023-08-06T08:09:08;3.88;;;1.80;;
12818;SDS011;6474;53.474;9.894;2023-08-06T08:11:39;1.67;;;1.67;;
12818;SDS011;6474;53.474;9.894;2023-08-06T08:14:09;2.17;;;1.95;;
12818;SDS011;6474;53.474;9.894;2023-08-06T08:16:37;1.90;;;1.50;;
12818;SDS011;6474;53.474;9.894;2023-08-06T08:19:05;1.50;;;1.40;;
12818;SDS011;6474;53.474;9.894;2023-08-06T08:21:33;1.83;;;1.60;;
12818;SDS011;6474;53.474;9.894;2023-08-06T08:24:04;1.60;;;1.60;;
12818;SDS011;6474;53.474;9.894;2023-08-06T08:26:32;5.03;;;2.00;;
12818;SDS011;6474;53.474;9.894;2023-08-06T08:29:00;1.98;;;1.52;;
12818;SDS011;6474;53.474;9.894;2023-08-06T08:31:30;1.90;;;1.80;;
12818;SDS011;6474;53.474;9.894;2023-08-06T08:34:05;1.80;;;1.80;;
12818;SDS011;6474;53.474;9.894;2023-08-06T08:36:33;1.98;;;1.88;;
12818;SDS011;6474;53.474;9.894;2023-08-06T08:39:01;1.65;;;1.65;;
12818;SDS011;6474;53.474;9.894;2023-08-06T08:41:30;1.65;;;1.65;;
12818;SDS011;6474;53.474;9.894;2023-08-06T08:43:59;1.63;;;1.63;;
12818;SDS011;6474;53.474;9.894;2023-08-06T08:46:30;1.40;;;1.40;;
12818;SDS011;6474;53.474;9.894;2023-08-06T08:49:00;1.67;;;1.52;;
12818;SDS011;6474;53.474;9.894;2023-08-06T08:51:30;2.35;;;2.20;;
12818;SDS011;6474;53.474;9.894;2023-08-06T08:54:00;1.58;;;1.58;;
12818;SDS011;6474;53.474;9.894;2023-08-06T08:56:31;2.08;;;1.98;;
12818;SDS011;6474;53.474;9.894;2023-08-06T08:58:59;2.80;;;1.92;;
12818;SDS011;6474;53.474;9.894;2023-08-06T09:01:27;1.70;;;1.70;;
12818;SDS011;6474;53.474;9.894;2023-08-06T09:03:57;2.08;;;1.98;;
12818;SDS011;6474;53.474;9.894;2023-08-06T09:06:27;3.05;;;2.75;;
12818;SDS011;6474;53.474;9.894;2023-08-06T09:09:02;2.78;;;1.90;;
12818;SDS011;6474;53.474;9.894;2023-08-06T09:11:35;1.77;;;1.77;;
12818;SDS011;6474;53.474;9.894;2023-08-06T09:14:10;2.13;;;2.03;;
12818;SDS011;6474;53.474;9.894;2023-08-06T09:16:40;2.10;;;2.00;;
12818;SDS011;6474;53.474;9.894;2023-08-06T09:19:12;1.90;;;1.90;;
12818;SDS011;6474;53.474;9.894;2023-08-06T09:21:42;2.22;;;1.92;;
12818;SDS011;6474;53.474;9.894;2023-08-06T09:24:11;2.03;;;2.03;;
12818;SDS011;6474;53.474;9.894;2023-08-06T09:26:40;3.33;;;2.13;;
12818;SDS011;6474;53.474;9.894;2023-08-06T09:29:09;2.15;;;2.15;;
12818;SDS011;6474;53.474;9.894;2023-08-06T09:31:41;1.80;;;1.77;;
12818;SDS011;6474;53.474;9.894;2023-08-06T09:34:12;2.13;;;2.13;;
12818;SDS011;6474;53.474;9.894;2023-08-06T09:36:43;3.13;;;2.28;;
12818;SDS011;6474;53.474;9.894;2023-08-06T09:39:15;2.33;;;2.22;;
12818;SDS011;6474;53.474;9.894;2023-08-06T09:41:47;2.25;;;2.05;;
12818;SDS011;6474;53.474;9.894;2023-08-06T09:44:16;2.28;;;2.17;;
12818;SDS011;6474;53.474;9.894;2023-08-06T09:46:48;2.05;;;2.03;;
12818;SDS011;6474;53.474;9.894;2023-08-06T09:49:19;1.80;;;1.80;;
12818;SDS011;6474;53.474;9.894;2023-08-06T09:51:50;5.65;;;2.80;;
12818;SDS011;6474;53.474;9.894;2023-08-06T09:54:22;2.33;;;2.22;;
12818;SDS011;6474;53.474;9.894;2023-08-06T09:56:53;2.25;;;2.15;;
12818;SDS011;6474;53.474;9.894;2023-08-06T09:59:22;1.95;;;1.85;;
12818;SDS011;6474;53.474;9.894;2023-08-06T10:01:51;2.70;;;2.53;;
12818;SDS011;6474;53.474;9.894;2023-08-06T10:04:20;2.65;;;2.45;;
12818;SDS011;6474;53.474;9.894;2023-08-06T10:06:54;2.45;;;2.25;;
12818;SDS011;6474;53.474;9.894;2023-08-06T10:09:23;1.80;;;1.80;;
12818;SDS011;6474;53.474;9.894;2023-08-06T10:11:51;1.73;;;1.73;;
12818;SDS011;6474;53.474;9.894;2023-08-06T10:14:23;2.30;;;2.20;;
12818;SDS011;6474;53.474;9.894;2023-08-06T10:16:54;2.90;;;2.72;;
12818;SDS011;6474;53.474;9.894;2023-08-06T10:19:25;2.33;;;2.22;;
12818;SDS011;6474;53.474;9.894;2023-08-06T10:22:10;2.17;;;2.10;;
12818;SDS011;6474;53.474;9.894;2023-08-06T10:27:53;2.00;;;2.00;;
12818;SDS011;6474;53.474;9.894;2023-08-06T10:30:36;1.88;;;1.88;;
12818;SDS011;6474;53.474;9.894;2023-08-06T10:33:18;1.98;;;1.98;;
12818;SDS011;6474;53.474;9.894;2023-08-06T10:36:03;1.80;;;1.80;;
12818;SDS011;6474;53.474;9.894;2023-08-06T10:38:43;2.30;;;2.20;;
12818;SDS011;6474;53.474;9.894;2023-08-06T10:41:16;1.80;;;1.80;;
12818;SDS011;6474;53.474;9.894;2023-08-06T10:44:05;1.65;;;1.65;;
12818;SDS011;6474;53.474;9.894;2023-08-06T10:46:35;1.80;;;1.70;;
12818;SDS011;6474;53.474;9.894;2023-08-06T10:49:10;1.45;;;1.45;;
12818;SDS011;6474;53.474;9.894;2023-08-06T10:51:44;2.03;;;1.92;;
12818;SDS011;6474;53.474;9.894;2023-08-06T10:54:16;1.73;;;1.55;;
12818;SDS011;6474;53.474;9.894;2023-08-06T10:56:50;1.60;;;1.60;;
12818;SDS011;6474;53.474;9.894;2023-08-06T10:59:22;1.80;;;1.80;;
12818;SDS011;6474;53.474;9.894;2023-08-06T11:01:50;1.55;;;1.52;;
12818;SDS011;6474;53.474;9.894;2023-08-06T11:04:20;2.33;;;2.08;;
12818;SDS011;6474;53.474;9.894;2023-08-06T11:06:53;3.80;;;2.42;;
12818;SDS011;6474;53.474;9.894;2023-08-06T11:09:22;2.40;;;2.20;;
12818;SDS011;6474;53.474;9.894;2023-08-06T11:11:50;2.20;;;2.10;;
12818;SDS011;6474;53.474;9.894;2023-08-06T11:14:19;2.40;;;2.20;;
12818;SDS011;6474;53.474;9.894;2023-08-06T11:16:50;1.73;;;1.73;;
12818;SDS011;6474;53.474;9.894;2023-08-06T11:19:25;1.83;;;1.73;;
12818;SDS011;6474;53.474;9.894;2023-08-06T11:21:55;2.90;;;1.98;;
12818;SDS011;6474;53.474;9.894;2023-08-06T11:24:26;4.28;;;1.90;;
12818;SDS011;6474;53.474;9.894;2023-08-06T11:26:56;2.90;;;1.70;;
12818;SDS011;6474;53.474;9.894;2023-08-06T11:29:26;2.20;;;2.08;;
12818;SDS011;6474;53.474;9.894;2023-08-06T11:32:02;2.17;;;2.08;;
12818;SDS011;6474;53.474;9.894;2023-08-06T11:34:32;2.00;;;1.90;;
12818;SDS011;6474;53.474;9.894;2023-08-06T11:37:04;3.45;;;1.67;;
12818;SDS011;6474;53.474;9.894;2023-08-06T11:39:37;1.80;;;1.70;;
12818;SDS011;6474;53.474;9.894;2023-08-06T11:42:06;1.70;;;1.70;;
12818;SDS011;6474;53.474;9.894;2023-08-06T11:44:34;1.63;;;1.63;;
12818;SDS011;6474;53.474;9.894;2023-08-06T11:47:04;1.80;;;1.80;;
12818;SDS011;6474;53.474;9.894;2023-08-06T11:52:10;1.83;;;1.75;;
12818;SDS011;6474;53.474;9.894;2023-08-06T11:54:41;1.60;;;1.60;;
12818;SDS011;6474;53.474;9.894;2023-08-06T11:57:10;1.73;;;1.73;;
12818;SDS011;6474;53.474;9.894;2023-08-06T11:59:40;5.43;;;1.77;;
12818;SDS011;6474;53.474;9.894;2023-08-06T12:02:09;1.67;;;1.67;;
12818;SDS011;6474;53.474;9.894;2023-08-06T12:04:57;1.50;;;1.50;;
12818;SDS011;6474;53.474;9.894;2023-08-06T12:07:29;2.58;;;1.70;;
12818;SDS011;6474;53.474;9.894;2023-08-06T12:09:58;1.90;;;1.80;;
12818;SDS011;6474;53.474;9.894;2023-08-06T12:12:27;2.25;;;2.25;;
12818;SDS011;6474;53.474;9.894;2023-08-06T12:14:55;1.60;;;1.60;;
12818;SDS011;6474;53.474;9.894;2023-08-06T12:17:24;2.30;;;2.25;;
12818;SDS011;6474;53.474;9.894;2023-08-06T12:19:53;2.25;;;2.15;;
12818;SDS011;6474;53.474;9.894;2023-08-06T12:22:23;2.22;;;2.13;;
12818;SDS011;6474;53.474;9.894;2023-08-06T12:24:52;1.77;;;1.77;;
12818;SDS011;6474;53.474;9.894;2023-08-06T12:27:20;2.28;;;2.28;;
12818;SDS011;6474;53.474;9.894;2023-08-06T12:29:50;2.00;;;1.90;;
12818;SDS011;6474;53.474;9.894;2023-08-06T12:32:19;2.65;;;1.73;;
12818;SDS011;6474;53.474;9.894;2023-08-06T12:34:48;1.80;;;1.80;;
12818;SDS011;6474;53.474;9.894;2023-08-06T12:37:19;2.28;;;2.17;;
12818;SDS011;6474;53.474;9.894;2023-08-06T12:39:47;2.22;;;2.13;;
12818;SDS011;6474;53.474;9.894;2023-08-06T12:42:16;1.83;;;1.83;;
12818;SDS011;6474;53.474;9.894;2023-08-06T12:44:44;1.90;;;1.73;;
12818;SDS011;6474;53.474;9.894;2023-08-06T12:47:13;1.45;;;1.45;;
12818;SDS011;6474;53.474;9.894;2023-08-06T12:49:41;2.08;;;2.08;;
12818;SDS011;6474;53.474;9.894;2023-08-06T12:52:09;2.00;;;1.90;;
12818;SDS011;6474;53.474;9.894;2023-08-06T12:54:41;1.85;;;1.85;;
12818;SDS011;6474;53.474;9.894;2023-08-06T12:57:12;2.08;;;1.67;;
12818;SDS011;6474;53.474;9.894;2023-08-06T12:59:41;2.25;;;2.15;;
12818;SDS011;6474;53.474;9.894;2023-08-06T13:02:10;2.20;;;2.10;;
12818;SDS011;6474;53.474;9.894;2023-08-06T13:04:38;2.03;;;1.92;;
12818;SDS011;6474;53.474;9.894;2023-08-06T13:07:06;2.22;;;2.13;;
12818;SDS011;6474;53.474;9.894;2023-08-06T13:09:34;1.92;;;1.83;;
12818;SDS011;6474;53.474;9.894;2023-08-06T13:12:05;2.25;;;1.75;;
12818;SDS011;6474;53.474;9.894;2023-08-06T13:14:33;2.22;;;2.13;;
12818;SDS011;6474;53.474;9.894;2023-08-06T13:17:02;1.85;;;1.85;;
12818;SDS011;6474;53.474;9.894;2023-08-06T13:19:32;2.20;;;2.10;;
12818;SDS011;6474;53.474;9.894;2023-08-06T13:22:01;2.00;;;1.90;;
12818;SDS011;6474;53.474;9.894;2023-08-06T13:24:31;2.00;;;1.90;;
12818;SDS011;6474;53.474;9.894;2023-08-06T13:26:59;1.70;;;1.70;;
12818;SDS011;6474;53.474;9.894;2023-08-06T13:29:28;1.60;;;1.55;;
12818;SDS011;6474;53.474;9.894;2023-08-06T13:31:56;2.05;;;1.70;;
12818;SDS011;6474;53.474;9.894;2023-08-06T13:34:30;1.80;;;1.80;;
12818;SDS011;6474;53.474;9.894;2023-08-06T13:37:05;2.05;;;1.92;;
12818;SDS011;6474;53.474;9.894;2023-08-06T13:39:33;2.58;;;1.83;;
12818;SDS011;6474;53.474;9.894;2023-08-06T13:42:02;1.63;;;1.63;;
12818;SDS011;6474;53.474;9.894;2023-08-06T13:44:30;2.13;;;1.92;;
12818;SDS011;6474;53.474;9.894;2023-08-06T13:47:02;2.42;;;2.15;;
12818;SDS011;6474;53.474;9.894;2023-08-06T13:49:32;1.50;;;1.50;;
12818;SDS011;6474;53.474;9.894;2023-08-06T13:52:00;1.50;;;1.50;;
12818;SDS011;6474;53.474;9.894;2023-08-06T13:54:49;1.70;;;1.55;;
12818;SDS011;6474;53.474;9.894;2023-08-06T13:57:17;1.83;;;1.73;;
12818;SDS011;6474;53.474;9.894;2023-08-06T13:59:46;1.85;;;1.85;;
12818;SDS011;6474;53.474;9.894;2023-08-06T14:02:14;2.20;;;2.10;;
12818;SDS011;6474;53.474;9.894;2023-08-06T14:04:46;2.05;;;1.95;;
12818;SDS011;6474;53.474;9.894;2023-08-06T14:07:14;1.90;;;1.90;;
12818;SDS011;6474;53.474;9.894;2023-08-06T14:09:42;1.75;;;1.75;;
12818;SDS011;6474;53.474;9.894;2023-08-06T14:12:15;1.88;;;1.77;;
12818;SDS011;6474;53.474;9.894;2023-08-06T14:14:43;1.95;;;1.90;;
12818;SDS011;6474;53.474;9.894;2023-08-06T14:17:11;1.85;;;1.75;;
12818;SDS011;6474;53.474;9.894;2023-08-06T14:19:39;1.52;;;1.52;;
12818;SDS011;6474;53.474;9.894;2023-08-06T14:22:09;1.88;;;1.88;;
12818;SDS011;6474;53.474;9.894;2023-08-06T14:24:37;1.50;;;1.50;;
12818;SDS011;6474;53.474;9.894;2023-08-06T14:27:05;2.00;;;1.90;;
12818;SDS011;6474;53.474;9.894;2023-08-06T14:29:33;4.50;;;1.85;;
12818;SDS011;6474;53.474;9.894;2023-08-06T14:32:01;1.80;;;1.77;;
12818;SDS011;6474;53.474;9.894;2023-08-06T14:34:29;1.88;;;1.88;;
12818;SDS011;6474;53.474;9.894;2023-08-06T14:37:03;1.63;;;1.63;;
12818;SDS011;6474;53.474;9.894;2023-08-06T14:39:33;1.75;;;1.75;;
12818;SDS011;6474;53.474;9.894;2023-08-06T14:42:00;2.03;;;1.92;;
12818;SDS011;6474;53.474;9.894;2023-08-06T14:44:29;1.58;;;1.55;;
12818;SDS011;6474;53.474;9.894;2023-08-06T14:46:57;1.10;;;1.10;;
12818;SDS011;6474;53.474;9.894;2023-08-06T14:49:25;1.10;;;1.10;;
12818;SDS011;6474;53.474;9.894;2023-08-06T14:51:53;0.82;;;0.82;;
12818;SDS011;6474;53.474;9.894;2023-08-06T14:54:25;1.05;;;1.05;;
12818;SDS011;6474;53.474;9.894;2023-08-06T14:56:55;1.05;;;1.05;;
12818;SDS011;6474;53.474;9.894;2023-08-06T14:59:25;1.00;;;0.93;;
12818;SDS011;6474;53.474;9.894;2023-08-06T15:01:55;0.85;;;0.63;;
12818;SDS011;6474;53.474;9.894;2023-08-06T15:04:23;1.52;;;1.30;;
12818;SDS011;6474;53.474;9.894;2023-08-06T15:06:54;0.75;;;0.75;;
12818;SDS011;6474;53.474;9.894;2023-08-06T15:09:22;0.77;;;0.77;;
12818;SDS011;6474;53.474;9.894;2023-08-06T15:11:54;1.05;;;1.05;;
12818;SDS011;6474;53.474;9.894;2023-08-06T15:14:23;0.88;;;0.88;;
12818;SDS011;6474;53.474;9.894;2023-08-06T15:17:00;1.08;;;1.08;;
12818;SDS011;6474;53.474;9.894;2023-08-06T15:19:28;0.98;;;0.98;;